KSMN

Lemhi County Airport

Salmon, Idaho, USA
METAR KSMN 210456Z AUTO 00000KT 10SM BKN042 OVC060 13/09 A3014 RMK AO2 SLP190 T01280089 TSNO PNO $
Observed Flight Rules
Aug-21 @ 04:56 UTC (9 hours ago) Visual Flight Rules
Visibility Clouds
10 miles
  • Broken at 4,200' AGL
  • Overcast at 6,000' AGL
Temperatures Readings
Current 13°C / 55°F
Dewpoint 9°C / 48°F
Humidity 77%
Altimeter 30.14" Hg
Pressure 1019 hPa
Elevation 1233
METAR KSMN 210456Z AUTO 00000KT 10SM BKN042 OVC060 13/09 A3014 RMK AO2 SLP190 T01280089 TSNO PNO $
Observed Flight Rules
Aug-21 @ 04:56 UTC
(9 hours ago)
VFR
Clouds
  • Broken at 4,200' AGL
  • Overcast at 6,000' AGL
Temperature Dewpoint
13°C / 55°F 9°C / 48°F
Humidity Altimeter Pressure
77% 30.14" Hg 1019 hPa